Lostant, IL (61334)

10:41 PM CDT on August 02, 2015 (GMT -0500)
Eplin/Connell Farm 2 miles NW of | | Change Station
CLOSE
Current Station
Personal Weather Station
Location: Streator, IL
Elevation: 626 ft
Nearby Weather Stations
Active Advisory: Severe Thunderstorm Watch

Elev 626 ft 41.17 °N, 88.85 °W | Updated 47 seconds ago

Partly Cloudy
Partly Cloudy
77.9 °F
Feels Like 80 °F
N
1.0
Wind Variable Wind from South
Gusts 4.0 mph

Today
High -- | Low -- °F
--% Chance of Precip.
Yesterday
High -- | Low -- °F
Precip. -- in
5:52 AM 8:11 PM
Waning Gibbous, 90% visible
Pressure 29.72 in
Visibility 10.0 miles
Clouds Scattered Clouds 4800 ft
Scattered Clouds 6000 ft
Heat Index 80 °F
Dew Point 73 °F
Humidity 86%
Rainfall 0.00 in
Snow Depth Not available.
UV 0 out of 12
Pollen 6.60 out of 12
Air Quality Not available.
Flu Activity Not available.
METAR KVYS 030315Z AUTO 24013G20KT 10SM SCT048 SCT060 28/22 A2972 RMK AO2 LTG DSNT NE T02790219

More Conditions Fewer Conditions

Pressure 29.72 in
Visibility 10.0 miles
Clouds Scattered Clouds 4800 ft
Scattered Clouds 6000 ft
Heat Index 80 °F
Dew Point 73 °F
Humidity 86%
Rainfall 0.00 in
Snow Depth Not available.
UV 0 out of 12
Pollen 6.60 out of 12
Air Quality Not available.
Flu Activity Not available.
METAR KVYS 030315Z AUTO 24013G20KT 10SM SCT048 SCT060 28/22 A2972 RMK AO2 LTG DSNT NE T02790219

More Conditions Fewer Conditions

10-Day Weather Forecast

×

Almanac

Astronomy

Aug. 02, 2015 Rise Set
Actual Time
Civil Twilight
Nautical Twilight
Astronomical Twilight
Moon
Length of Visible Light
Length of Day
Tomorrow will be .
, % of the Moon is Illuminated

Today's Extremes

State Highs State Lows

Community

WunderPhotos

Upload Photos

1,843,565 photos uploaded!

WunderBlogs® & News

Nearby

Air Quality

  Air Quality AQ Index Pollutant
Not available.

Snow Depth

Station Depth Elevation

Earthquake Activity

City Distance Mag. Time & Date
Minimum magnitude displayed is 2.5.

Coastal Water Temperatures

Place Temperature

Stations

Nearby Weather Stations

Station Location Temp. Windchill Dew Point Humidity Wind Precip. Elev Updated Type
                   
Severe Thunderstorm Watch
Statement as of 10:24 PM CDT on August 02, 2015

Severe Thunderstorm Watch 465 remains in effect until 200 am CDT

IL
. Illinois counties included are

Boone Bureau Carroll
Cook De Kalb dupage
Grundy Henderson Henry
Kane Kankakee Kendall
Knox Lake La Salle
Lee McHenry Marshall
Mercer Ogle Putnam
Rock Island Stark Stephenson
Warren Whiteside will
Winnebago